Wetterdaten: Woche 21.12.15 - 27.12.15 (KW52)
Datum Zeit Temp. A. Feuchte A. Luftdruck Regen Wind Richtung Sonnenschein ET UV Solar Taupunkt Windchill Windben Empfang
21.12.2015 00:00 2,2 C 99 % 1026,4 hPa 0,0 l/m 5,8 km/h (2 Bft) O-NO 0,00 h 0,000 mm 0,0 UV-I 0 W/m 2,0 C 1,8 C 10,6 km/h (2 Bft) 98,70 %
21.12.2015 01:00 2,1 C 99 % 1026,2 hPa 0,0 l/m 3,9 km/h (1 Bft) NO 0,00 h 0,000 mm 0,0 UV-I 0 W/m 1,9 C 2,1 C 6,8 km/h (2 Bft) 98,39 %
21.12.2015 02:00 2,0 C 99 % 1026,1 hPa 0,0 l/m 3,7 km/h (1 Bft) NO 0,00 h 0,000 mm 0,0 UV-I 0 W/m 1,9 C 2,0 C 6,8 km/h (2 Bft) 98,51 %
21.12.2015 03:00 2,1 C 99 % 1026,2 hPa 0,0 l/m 2,6 km/h (1 Bft) O-NO 0,00 h 0,000 mm 0,0 UV-I 0 W/m 2,0 C 2,1 C 4,8 km/h (1 Bft) 98,32 %
21.12.2015 04:00 2,0 C 99 % 1026,5 hPa 0,0 l/m 1,7 km/h (1 Bft) S 0,00 h 0,000 mm 0,0 UV-I 0 W/m 1,9 C 2,0 C 4,0 km/h (1 Bft) 98,39 %
21.12.2015 05:00 1,9 C 99 % 1026,9 hPa 0,0 l/m 1,1 km/h (0 Bft) S-SO 0,00 h 0,000 mm 0,0 UV-I 0 W/m 1,8 C 1,9 C 2,9 km/h (1 Bft) 98,74 %
21.12.2015 06:00 1,9 C 99 % 1027,2 hPa 0,0 l/m 0,9 km/h (0 Bft) S-SO 0,00 h 0,000 mm 0,0 UV-I 0 W/m 1,8 C 1,9 C 2,9 km/h (1 Bft) 97,80 %
21.12.2015 07:00 1,9 C 99 % 1027,7 hPa 0,0 l/m 1,1 km/h (0 Bft) S-SO 0,00 h 0,000 mm 0,0 UV-I 4 W/m 1,7 C 1,9 C 3,3 km/h (1 Bft) 98,85 %
21.12.2015 08:00 1,8 C 99 % 1027,9 hPa 0,0 l/m 1,1 km/h (0 Bft) O 0,00 h 0,000 mm 0,0 UV-I 23 W/m 1,6 C 1,8 C 3,5 km/h (1 Bft) 98,14 %
21.12.2015 09:00 1,9 C 99 % 1028,3 hPa 0,0 l/m 0,9 km/h (0 Bft) S 0,00 h 0,000 mm 0,0 UV-I 53 W/m 1,7 C 1,9 C 2,8 km/h (1 Bft) 98,64 %
21.12.2015 10:00 2,2 C 99 % 1028,4 hPa 0,0 l/m 0,6 km/h (0 Bft) NO 0,00 h 0,025 mm 0,0 UV-I 58 W/m 2,1 C 2,2 C 2,1 km/h (1 Bft) 98,23 %
21.12.2015 11:00 2,5 C 99 % 1028,4 hPa 0,0 l/m 0,7 km/h (0 Bft) O-SO 0,00 h 0,026 mm 0,0 UV-I 78 W/m 2,4 C 2,5 C 2,5 km/h (1 Bft) 99,44 %
21.12.2015 12:00 3,0 C 99 % 1028,3 hPa 0,0 l/m 0,7 km/h (0 Bft) S-SW 0,00 h 0,025 mm 0,0 UV-I 79 W/m 2,9 C 3,0 C 2,4 km/h (1 Bft) 97,59 %
21.12.2015 13:00 3,5 C 100 % 1028,4 hPa 0,0 l/m 1,1 km/h (1 Bft) SW 0,00 h 0,026 mm 0,0 UV-I 42 W/m 3,4 C 3,5 C 3,5 km/h (1 Bft) 99,08 %
21.12.2015 14:00 4,1 C 99 % 1028,8 hPa 0,2 l/m 5,7 km/h (1 Bft) W-SW 0,00 h 0,025 mm 0,0 UV-I 37 W/m 4,0 C 3,2 C 9,4 km/h (2 Bft) 97,92 %
21.12.2015 15:00 5,5 C 100 % 1029,4 hPa 0,0 l/m 8,8 km/h (2 Bft) SW 0,00 h 0,025 mm 0,0 UV-I 12 W/m 5,4 C 3,5 C 14,0 km/h (3 Bft) 99,48 %
21.12.2015 16:00 6,7 C 99 % 1029,7 hPa 0,0 l/m 5,9 km/h (2 Bft) S-SW 0,00 h 0,000 mm 0,0 UV-I 0 W/m 6,6 C 6,3 C 9,9 km/h (2 Bft) 97,93 %
21.12.2015 17:00 7,4 C 99 % 1029,5 hPa 0,0 l/m 8,9 km/h (2 Bft) S 0,00 h 0,000 mm 0,0 UV-I 0 W/m 7,2 C 5,2 C 14,8 km/h (3 Bft) 99,66 %
21.12.2015 18:00 6,2 C 98 % 1029,4 hPa 0,0 l/m 2,8 km/h (1 Bft) NO 0,00 h 0,000 mm 0,0 UV-I 0 W/m 5,9 C 6,2 C 5,5 km/h (1 Bft) 97,35 %
21.12.2015 19:00 4,5 C 99 % 1029,7 hPa 0,0 l/m 2,3 km/h (1 Bft) NO 0,00 h 0,000 mm 0,0 UV-I 0 W/m 4,3 C 4,5 C 4,8 km/h (1 Bft) 99,33 %
21.12.2015 20:00 5,1 C 99 % 1030,0 hPa 0,0 l/m 3,1 km/h (1 Bft) SW 0,00 h 0,000 mm 0,0 UV-I 0 W/m 5,0 C 5,1 C 6,3 km/h (2 Bft) 98,15 %
21.12.2015 21:00 5,2 C 98 % 1030,4 hPa 0,0 l/m 4,5 km/h (1 Bft) SW 0,00 h 0,000 mm 0,0 UV-I 0 W/m 4,9 C 5,1 C 6,6 km/h (2 Bft) 99,09 %
21.12.2015 22:00 5,5 C 97 % 1030,3 hPa 0,0 l/m 7,3 km/h (2 Bft) S-SW 0,00 h 0,000 mm 0,0 UV-I 0 W/m 5,1 C 4,7 C 11,0 km/h (2 Bft) 98,09 %
21.12.2015 23:00 6,0 C 93 % 1030,4 hPa 0,0 l/m 7,7 km/h (2 Bft) SW 0,00 h 0,000 mm 0,0 UV-I 0 W/m 5,0 C 4,9 C 12,9 km/h (3 Bft) 98,91 %
22.12.2015 00:00 6,2 C 91 % 1030,3 hPa 0,0 l/m 9,1 km/h (2 Bft) SW 0,00 h 0,000 mm 0,0 UV-I 0 W/m 4,8 C 4,2 C 15,6 km/h (3 Bft) 98,49 %
22.12.2015 01:00 6,9 C 88 % 1030,1 hPa 0,0 l/m 12,1 km/h (2 Bft) SW 0,00 h 0,000 mm 0,0 UV-I 0 W/m 5,0 C 2,9 C 19,7 km/h (3 Bft) 98,27 %
22.12.2015 02:00 6,9 C 85 % 1030,3 hPa 0,0 l/m 10,2 km/h (2 Bft) SW 0,00 h 0,025 mm 0,0 UV-I 0 W/m 4,5 C 4,1 C 16,4 km/h (3 Bft) 99,42 %
22.12.2015 03:00 7,1 C 85 % 1031,1 hPa 0,0 l/m 10,4 km/h (2 Bft) SW 0,00 h 0,026 mm 0,0 UV-I 0 W/m 4,7 C 4,2 C 16,0 km/h (3 Bft) 97,67 %
22.12.2015 04:00 7,5 C 85 % 1031,1 hPa 0,0 l/m 10,5 km/h (2 Bft) SW 0,00 h 0,025 mm 0,0 UV-I 0 W/m 5,2 C 4,6 C 17,4 km/h (3 Bft) 99,29 %
22.12.2015 05:00 8,2 C 83 % 1030,9 hPa 0,0 l/m 11,0 km/h (2 Bft) SW 0,00 h 0,026 mm 0,0 UV-I 0 W/m 5,5 C 5,0 C 17,7 km/h (3 Bft) 98,10 %
22.12.2015 06:00 8,1 C 84 % 1030,8 hPa 0,0 l/m 9,9 km/h (2 Bft) SW 0,00 h 0,025 mm 0,0 UV-I 0 W/m 5,5 C 5,7 C 15,3 km/h (3 Bft) 99,43 %
22.12.2015 07:00 8,0 C 84 % 1030,8 hPa 0,0 l/m 8,7 km/h (2 Bft) SW 0,00 h 0,025 mm 0,0 UV-I 3 W/m 5,5 C 6,3 C 15,0 km/h (3 Bft) 98,04 %
22.12.2015 08:00 8,1 C 83 % 1031,0 hPa 0,0 l/m 6,3 km/h (2 Bft) SW 0,08 h 0,026 mm 0,0 UV-I 29 W/m 5,4 C 7,9 C 11,0 km/h (2 Bft) 99,21 %
22.12.2015 09:00 8,8 C 81 % 1031,3 hPa 0,0 l/m 7,1 km/h (2 Bft) SW 0,33 h 0,025 mm 0,0 UV-I 97 W/m 5,7 C 7,4 C 12,5 km/h (3 Bft) 97,95 %
22.12.2015 10:00 11,0 C 74 % 1031,6 hPa 0,0 l/m 11,5 km/h (2 Bft) SW 1,00 h 0,051 mm 0,5 UV-I 210 W/m 6,6 C 8,0 C 18,5 km/h (3 Bft) 99,28 %
22.12.2015 11:00 12,6 C 67 % 1031,4 hPa 0,0 l/m 7,5 km/h (2 Bft) SW 1,00 h 0,127 mm 0,7 UV-I 296 W/m 6,8 C 12,0 C 13,8 km/h (3 Bft) 98,51 %
22.12.2015 12:00 13,5 C 63 % 1030,7 hPa 0,0 l/m 10,3 km/h (2 Bft) W-SW 1,00 h 0,178 mm 0,8 UV-I 283 W/m 6,6 C 11,4 C 17,3 km/h (3 Bft) 99,30 %
22.12.2015 13:00 14,0 C 60 % 1029,9 hPa 0,0 l/m 11,5 km/h (2 Bft) W-SW 1,00 h 0,178 mm 0,5 UV-I 238 W/m 6,3 C 11,4 C 19,4 km/h (3 Bft) 98,57 %
22.12.2015 14:00 13,7 C 62 % 1029,3 hPa 0,0 l/m 7,2 km/h (2 Bft) SW 0,67 h 0,177 mm 0,0 UV-I 126 W/m 6,6 C 13,1 C 12,5 km/h (3 Bft) 98,29 %
22.12.2015 15:00 12,1 C 68 % 1029,1 hPa 0,0 l/m 1,7 km/h (1 Bft) SW 0,08 h 0,102 mm 0,0 UV-I 30 W/m 6,3 C 12,1 C 3,5 km/h (1 Bft) 98,86 %
22.12.2015 16:00 9,9 C 76 % 1028,9 hPa 0,0 l/m 2,3 km/h (1 Bft) O-NO 0,08 h 0,025 mm 0,0 UV-I 6 W/m 5,9 C 9,9 C 4,7 km/h (1 Bft) 97,66 %
22.12.2015 17:00 7,7 C 85 % 1028,8 hPa 0,0 l/m 1,3 km/h (1 Bft) NO 0,00 h 0,000 mm 0,0 UV-I 0 W/m 5,3 C 7,7 C 4,1 km/h (1 Bft) 97,80 %
22.12.2015 18:00 6,8 C 87 % 1028,5 hPa 0,0 l/m 1,2 km/h (1 Bft) NO 0,00 h 0,000 mm 0,0 UV-I 0 W/m 4,8 C 6,8 C 3,9 km/h (1 Bft) 99,85 %
22.12.2015 19:00 6,3 C 85 % 1028,5 hPa 0,0 l/m 4,0 km/h (1 Bft) S-SW 0,00 h 0,000 mm 0,0 UV-I 0 W/m 4,1 C 6,3 C 6,4 km/h (2 Bft) 98,25 %
22.12.2015 20:00 5,8 C 84 % 1028,5 hPa 0,0 l/m 3,5 km/h (1 Bft) S-SW 0,00 h 0,000 mm 0,0 UV-I 0 W/m 3,3 C 5,8 C 5,5 km/h (1 Bft) 99,37 %
22.12.2015 21:00 5,6 C 82 % 1028,3 hPa 0,0 l/m 2,7 km/h (1 Bft) S 0,00 h 0,000 mm 0,0 UV-I 0 W/m 2,8 C 5,6 C 5,2 km/h (1 Bft) 97,94 %
22.12.2015 22:00 3,6 C 89 % 1028,0 hPa 0,0 l/m 3,0 km/h (1 Bft) SO 0,00 h 0,000 mm 0,0 UV-I 0 W/m 2,0 C 3,6 C 5,3 km/h (1 Bft) 99,43 %
22.12.2015 23:00 3,1 C 91 % 1027,8 hPa 0,0 l/m 1,8 km/h (1 Bft) O-SO 0,00 h 0,000 mm 0,0 UV-I 0 W/m 1,8 C 3,1 C 3,5 km/h (1 Bft) 97,64 %
23.12.2015 00:00 2,5 C 93 % 1027,5 hPa 0,0 l/m 2,1 km/h (1 Bft) SO 0,00 h 0,000 mm 0,0 UV-I 0 W/m 1,4 C 2,5 C 4,5 km/h (1 Bft) 98,87 %
23.12.2015 01:00 2,0 C 93 % 1027,2 hPa 0,0 l/m 3,2 km/h (1 Bft) S 0,00 h 0,000 mm 0,0 UV-I 0 W/m 1,0 C 2,0 C 5,2 km/h (1 Bft) 99,01 %
23.12.2015 02:00 2,3 C 93 % 1027,0 hPa 0,0 l/m 3,3 km/h (1 Bft) S 0,00 h 0,000 mm 0,0 UV-I 0 W/m 1,2 C 2,3 C 5,2 km/h (1 Bft) 98,25 %
23.12.2015 03:00 1,7 C 94 % 1026,8 hPa 0,0 l/m 3,0 km/h (1 Bft) S 0,00 h 0,000 mm 0,0 UV-I 0 W/m 0,8 C 1,7 C 4,5 km/h (1 Bft) 99,34 %
23.12.2015 04:00 1,3 C 95 % 1026,8 hPa 0,0 l/m 2,5 km/h (1 Bft) S-SW 0,00 h 0,000 mm 0,0 UV-I 0 W/m 0,5 C 1,3 C 3,9 km/h (1 Bft) 97,57 %
23.12.2015 05:00 1,3 C 94 % 1026,9 hPa 0,0 l/m 2,6 km/h (1 Bft) S-SW 0,00 h 0,000 mm 0,0 UV-I 0 W/m 0,5 C 1,3 C 4,7 km/h (1 Bft) 98,84 %
23.12.2015 06:00 1,4 C 94 % 1027,5 hPa 0,0 l/m 2,6 km/h (1 Bft) S-SW 0,00 h 0,000 mm 0,0 UV-I 0 W/m 0,5 C 1,4 C 4,1 km/h (1 Bft) 97,46 %
23.12.2015 07:00 1,3 C 94 % 1028,4 hPa 0,0 l/m 3,6 km/h (1 Bft) SW 0,00 h 0,000 mm 0,0 UV-I 5 W/m 0,4 C 1,3 C 5,5 km/h (1 Bft) 99,00 %
23.12.2015 08:00 1,9 C 92 % 1029,6 hPa 0,0 l/m 4,0 km/h (1 Bft) S 0,17 h 0,000 mm 0,0 UV-I 25 W/m 0,8 C 1,9 C 7,7 km/h (2 Bft) 98,88 %
23.12.2015 09:00 3,4 C 89 % 1030,4 hPa 0,0 l/m 5,5 km/h (1 Bft) S-SW 0,75 h 0,025 mm 0,0 UV-I 119 W/m 1,8 C 3,3 C 9,5 km/h (2 Bft) 98,70 %
23.12.2015 10:00 6,5 C 78 % 1030,9 hPa 0,0 l/m 9,3 km/h (2 Bft) W 1,00 h 0,051 mm 0,5 UV-I 217 W/m 3,0 C 4,3 C 14,9 km/h (3 Bft) 98,92 %
23.12.2015 11:00 8,2 C 77 % 1030,9 hPa 0,0 l/m 2,1 km/h (1 Bft) W-NW 1,00 h 0,102 mm 0,7 UV-I 269 W/m 4,4 C 8,2 C 5,8 km/h (1 Bft) 98,87 %
23.12.2015 12:00 8,9 C 76 % 1030,6 hPa 0,0 l/m 1,2 km/h (1 Bft) W-SW 1,00 h 0,127 mm 0,7 UV-I 277 W/m 4,9 C 8,9 C 4,4 km/h (1 Bft) 98,37 %
23.12.2015 13:00 10,5 C 72 % 1029,9 hPa 0,0 l/m 1,3 km/h (1 Bft) W-SW 1,00 h 0,127 mm 0,5 UV-I 237 W/m 5,7 C 10,5 C 3,5 km/h (1 Bft) 98,74 %
23.12.2015 14:00 10,9 C 73 % 1029,6 hPa 0,0 l/m 1,5 km/h (1 Bft) NO 1,00 h 0,127 mm 0,0 UV-I 142 W/m 6,2 C 10,9 C 3,2 km/h (1 Bft) 98,72 %
23.12.2015 15:00 9,7 C 77 % 1029,9 hPa 0,0 l/m 4,8 km/h (1 Bft) NO 0,25 h 0,076 mm 0,0 UV-I 41 W/m 5,9 C 9,6 C 7,5 km/h (2 Bft) 97,91 %
23.12.2015 16:00 7,3 C 84 % 1030,4 hPa 0,0 l/m 1,9 km/h (1 Bft) N-NO 0,08 h 0,025 mm 0,0 UV-I 7 W/m 4,8 C 7,3 C 3,7 km/h (1 Bft) 99,21 %
23.12.2015 17:00 5,8 C 89 % 1030,9 hPa 0,0 l/m 1,5 km/h (1 Bft) SO 0,00 h 0,000 mm 0,0 UV-I 0 W/m 4,2 C 5,8 C 3,9 km/h (1 Bft) 98,29 %
23.12.2015 18:00 5,6 C 90 % 1031,3 hPa 0,0 l/m 2,4 km/h (1 Bft) NO 0,00 h 0,000 mm 0,0 UV-I 0 W/m 4,1 C 5,6 C 4,9 km/h (1 Bft) 98,27 %
23.12.2015 19:00 6,0 C 90 % 1031,4 hPa 0,0 l/m 2,5 km/h (1 Bft) S 0,00 h 0,000 mm 0,0 UV-I 0 W/m 4,5 C 6,0 C 4,9 km/h (1 Bft) 98,71 %
23.12.2015 20:00 6,1 C 90 % 1031,5 hPa 0,0 l/m 2,9 km/h (1 Bft) S 0,00 h 0,000 mm 0,0 UV-I 0 W/m 4,5 C 6,1 C 5,6 km/h (1 Bft) 98,36 %
23.12.2015 21:00 6,0 C 89 % 1031,6 hPa 0,0 l/m 2,1 km/h (1 Bft) O-NO 0,00 h 0,000 mm 0,0 UV-I 0 W/m 4,4 C 6,0 C 4,0 km/h (1 Bft) 99,35 %
23.12.2015 22:00 5,5 C 91 % 1031,4 hPa 0,0 l/m 1,3 km/h (1 Bft) S-SO 0,00 h 0,000 mm 0,0 UV-I 0 W/m 4,1 C 5,5 C 3,9 km/h (1 Bft) 97,72 %
23.12.2015 23:00 5,1 C 92 % 1031,2 hPa 0,0 l/m 0,7 km/h (0 Bft) O 0,00 h 0,000 mm 0,0 UV-I 0 W/m 3,9 C 5,1 C 2,5 km/h (1 Bft) 99,30 %
24.12.2015 00:00 5,5 C 89 % 1030,8 hPa 0,0 l/m 3,0 km/h (1 Bft) S 0,00 h 0,000 mm 0,0 UV-I 0 W/m 3,9 C 5,5 C 5,2 km/h (1 Bft) 97,43 %
24.12.2015 01:00 5,3 C 90 % 1030,3 hPa 0,0 l/m 1,6 km/h (1 Bft) S 0,00 h 0,000 mm 0,0 UV-I 0 W/m 3,7 C 5,3 C 3,3 km/h (1 Bft) 99,00 %
24.12.2015 02:00 4,7 C 93 % 1030,2 hPa 0,0 l/m 1,0 km/h (0 Bft) N-NO 0,00 h 0,000 mm 0,0 UV-I 0 W/m 3,7 C 4,7 C 2,9 km/h (1 Bft) 97,72 %
24.12.2015 03:00 3,9 C 95 % 1030,0 hPa 0,0 l/m 2,1 km/h (1 Bft) O 0,00 h 0,000 mm 0,0 UV-I 0 W/m 3,2 C 3,9 C 3,6 km/h (1 Bft) 99,01 %
24.12.2015 04:00 3,0 C 96 % 1029,6 hPa 0,0 l/m 2,0 km/h (1 Bft) S-SO 0,00 h 0,000 mm 0,0 UV-I 0 W/m 2,4 C 3,0 C 5,9 km/h (2 Bft) 97,98 %
24.12.2015 05:00 2,6 C 96 % 1029,1 hPa 0,0 l/m 1,4 km/h (1 Bft) S 0,00 h 0,000 mm 0,0 UV-I 0 W/m 1,9 C 2,6 C 2,8 km/h (1 Bft) 99,21 %
24.12.2015 06:00 1,9 C 97 % 1028,6 hPa 0,0 l/m 2,6 km/h (1 Bft) NO 0,00 h 0,000 mm 0,0 UV-I 0 W/m 1,4 C 1,9 C 5,1 km/h (1 Bft) 98,45 %
24.12.2015 07:00 0,9 C 97 % 1028,2 hPa 0,0 l/m 2,2 km/h (1 Bft) S 0,00 h 0,000 mm 0,0 UV-I 4 W/m 0,4 C 0,9 C 4,3 km/h (1 Bft) 98,50 %
24.12.2015 08:00 0,5 C 97 % 1028,1 hPa 0,0 l/m 0,9 km/h (0 Bft) S-SW 0,08 h 0,000 mm 0,0 UV-I 30 W/m 0,1 C 0,5 C 2,3 km/h (1 Bft) 98,66 %
24.12.2015 09:00 2,1 C 97 % 1028,3 hPa 0,0 l/m 1,6 km/h (1 Bft) S-SO 0,67 h 0,000 mm 0,0 UV-I 117 W/m 1,7 C 2,1 C 4,1 km/h (1 Bft) 98,15 %
24.12.2015 10:00 4,6 C 92 % 1028,2 hPa 0,0 l/m 3,1 km/h (1 Bft) S-SO 1,00 h 0,051 mm 0,5 UV-I 220 W/m 3,3 C 4,6 C 7,6 km/h (2 Bft) 98,93 %
24.12.2015 11:00 6,4 C 85 % 1027,6 hPa 0,0 l/m 2,9 km/h (1 Bft) S-SO 1,00 h 0,101 mm 0,7 UV-I 277 W/m 4,1 C 6,4 C 7,1 km/h (2 Bft) 98,49 %
24.12.2015 12:00 8,1 C 79 % 1026,8 hPa 0,0 l/m 4,1 km/h (1 Bft) NO 1,00 h 0,127 mm 0,7 UV-I 285 W/m 4,6 C 7,9 C 7,4 km/h (2 Bft) 98,20 %
24.12.2015 13:00 8,7 C 79 % 1026,4 hPa 0,0 l/m 4,0 km/h (1 Bft) O-NO 1,00 h 0,127 mm 0,5 UV-I 238 W/m 5,3 C 8,5 C 7,9 km/h (2 Bft) 98,40 %
24.12.2015 14:00 8,9 C 78 % 1026,2 hPa 0,0 l/m 3,5 km/h (1 Bft) S 1,00 h 0,102 mm 0,0 UV-I 147 W/m 5,3 C 8,9 C 7,4 km/h (2 Bft) 98,63 %
24.12.2015 15:00 8,0 C 78 % 1026,2 hPa 0,0 l/m 3,0 km/h (1 Bft) S-SW 0,25 h 0,076 mm 0,0 UV-I 38 W/m 4,3 C 8,0 C 6,1 km/h (2 Bft) 98,25 %
24.12.2015 16:00 5,4 C 88 % 1026,3 hPa 0,0 l/m 1,8 km/h (1 Bft) S-SW 0,08 h 0,026 mm 0,0 UV-I 7 W/m 3,5 C 5,4 C 3,5 km/h (1 Bft) 99,20 %
24.12.2015 17:00 4,0 C 91 % 1026,7 hPa 0,0 l/m 0,8 km/h (0 Bft) O-NO 0,00 h 0,000 mm 0,0 UV-I 0 W/m 2,7 C 4,0 C 2,7 km/h (1 Bft) 97,30 %
24.12.2015 18:00 3,1 C 94 % 1027,1 hPa 0,0 l/m 1,6 km/h (1 Bft) SW 0,00 h 0,000 mm 0,0 UV-I 0 W/m 2,2 C 3,1 C 2,7 km/h (1 Bft) 98,86 %
24.12.2015 19:00 2,6 C 95 % 1027,8 hPa 0,0 l/m 3,6 km/h (1 Bft) S 0,00 h 0,000 mm 0,0 UV-I 0 W/m 1,9 C 2,6 C 5,6 km/h (1 Bft) 98,48 %
24.12.2015 20:00 2,6 C 93 % 1028,6 hPa 0,0 l/m 3,5 km/h (1 Bft) S 0,00 h 0,000 mm 0,0 UV-I 0 W/m 1,5 C 2,6 C 6,1 km/h (2 Bft) 98,46 %
24.12.2015 21:00 2,3 C 92 % 1029,1 hPa 0,0 l/m 5,5 km/h (1 Bft) S 0,00 h 0,000 mm 0,0 UV-I 0 W/m 1,2 C 2,2 C 8,8 km/h (2 Bft) 98,84 %
24.12.2015 22:00 2,6 C 90 % 1029,3 hPa 0,0 l/m 5,5 km/h (1 Bft) S 0,00 h 0,000 mm 0,0 UV-I 0 W/m 1,1 C 2,6 C 8,2 km/h (2 Bft) 97,79 %
24.12.2015 23:00 2,5 C 89 % 1029,4 hPa 0,0 l/m 3,0 km/h (1 Bft) S 0,00 h 0,000 mm 0,0 UV-I 0 W/m 0,9 C 2,5 C 6,5 km/h (2 Bft) 98,58 %
25.12.2015 00:00 1,2 C 92 % 1029,5 hPa 0,0 l/m 0,7 km/h (0 Bft) S 0,00 h 0,000 mm 0,0 UV-I 0 W/m 0,1 C 1,2 C 2,7 km/h (1 Bft) 97,95 %
25.12.2015 01:00 0,5 C 94 % 1030,0 hPa 0,0 l/m 1,0 km/h (0 Bft) O-NO 0,00 h 0,000 mm 0,0 UV-I 0 W/m -0,4 C 0,5 C 2,9 km/h (1 Bft) 98,45 %
25.12.2015 02:00 0,2 C 95 % 1030,4 hPa 0,0 l/m 0,7 km/h (0 Bft) O-SO 0,00 h 0,000 mm 0,0 UV-I 0 W/m -0,6 C 0,2 C 2,3 km/h (1 Bft) 97,49 %
25.12.2015 03:00 -0,1 C 96 % 1030,7 hPa 0,0 l/m 0,5 km/h (0 Bft) SO 0,00 h 0,000 mm 0,0 UV-I 0 W/m -0,7 C -0,1 C 2,4 km/h (1 Bft) 99,21 %
25.12.2015 04:00 -0,3 C 97 % 1031,3 hPa 0,0 l/m 0,5 km/h (0 Bft) N 0,00 h 0,000 mm 0,0 UV-I 0 W/m -0,8 C -0,3 C 2,5 km/h (1 Bft) 97,57 %
25.12.2015 05:00 0,2 C 97 % 1031,8 hPa 0,0 l/m 0,7 km/h (0 Bft) S-SO 0,00 h 0,000 mm 0,0 UV-I 0 W/m -0,2 C 0,2 C 2,3 km/h (1 Bft) 99,30 %
25.12.2015 06:00 0,6 C 97 % 1032,0 hPa 0,0 l/m 1,2 km/h (1 Bft) NO 0,00 h 0,000 mm 0,0 UV-I 0 W/m 0,2 C 0,6 C 3,6 km/h (1 Bft) 97,44 %
25.12.2015 07:00 0,7 C 96 % 1032,3 hPa 0,0 l/m 2,3 km/h (1 Bft) S 0,00 h 0,000 mm 0,0 UV-I 5 W/m 0,2 C 0,7 C 5,2 km/h (1 Bft) 98,60 %
25.12.2015 08:00 0,7 C 96 % 1032,9 hPa 0,0 l/m 1,2 km/h (1 Bft) SW 0,42 h 0,000 mm 0,0 UV-I 41 W/m 0,2 C 0,7 C 3,5 km/h (1 Bft) 97,95 %
25.12.2015 09:00 1,7 C 95 % 1033,2 hPa 0,0 l/m 0,9 km/h (0 Bft) S-SO 0,50 h 0,025 mm 0,0 UV-I 101 W/m 1,1 C 1,7 C 2,8 km/h (1 Bft) 99,08 %
25.12.2015 10:00 3,9 C 92 % 1033,4 hPa 0,0 l/m 0,6 km/h (0 Bft) N 1,00 h 0,051 mm 0,5 UV-I 218 W/m 2,7 C 3,9 C 2,7 km/h (1 Bft) 97,29 %
25.12.2015 11:00 5,9 C 89 % 1033,3 hPa 0,0 l/m 4,2 km/h (1 Bft) NO 1,00 h 0,076 mm 0,6 UV-I 263 W/m 4,2 C 5,9 C 6,8 km/h (2 Bft) 98,87 %
25.12.2015 12:00 7,8 C 86 % 1033,0 hPa 0,0 l/m 4,5 km/h (1 Bft) NO 1,00 h 0,102 mm 0,7 UV-I 269 W/m 5,5 C 7,8 C 6,5 km/h (2 Bft) 98,10 %
25.12.2015 13:00 9,1 C 81 % 1032,6 hPa 0,0 l/m 3,1 km/h (1 Bft) NO 1,00 h 0,127 mm 0,5 UV-I 229 W/m 5,9 C 9,1 C 5,1 km/h (1 Bft) 97,85 %
25.12.2015 14:00 9,7 C 77 % 1032,2 hPa 0,0 l/m 2,5 km/h (1 Bft) O-NO 1,00 h 0,102 mm 0,0 UV-I 148 W/m 5,7 C 9,7 C 4,3 km/h (1 Bft) 98,50 %
25.12.2015 15:00 9,2 C 80 % 1032,1 hPa 0,0 l/m 1,9 km/h (1 Bft) SO 1,00 h 0,076 mm 0,0 UV-I 57 W/m 5,9 C 9,2 C 4,1 km/h (1 Bft) 97,88 %
25.12.2015 16:00 7,6 C 82 % 1032,3 hPa 0,0 l/m 1,0 km/h (0 Bft) S-SO 0,08 h 0,025 mm 0,0 UV-I 8 W/m 4,7 C 7,6 C 3,1 km/h (1 Bft) 99,01 %
25.12.2015 17:00 6,2 C 87 % 1032,5 hPa 0,0 l/m 1,2 km/h (1 Bft) S-SO 0,00 h 0,000 mm 0,0 UV-I 0 W/m 4,3 C 6,2 C 2,5 km/h (1 Bft) 97,64 %
25.12.2015 18:00 5,0 C 92 % 1032,7 hPa 0,0 l/m 2,3 km/h (1 Bft) S-SO 0,00 h 0,000 mm 0,0 UV-I 0 W/m 3,8 C 5,0 C 3,9 km/h (1 Bft) 98,70 %
25.12.2015 19:00 4,2 C 93 % 1033,0 hPa 0,0 l/m 0,4 km/h (0 Bft) SW 0,00 h 0,000 mm 0,0 UV-I 0 W/m 3,2 C 4,2 C 1,7 km/h (1 Bft) 97,51 %
25.12.2015 20:00 3,3 C 96 % 1033,0 hPa 0,0 l/m 1,2 km/h (1 Bft) SW 0,00 h 0,000 mm 0,0 UV-I 0 W/m 2,7 C 3,3 C 2,8 km/h (1 Bft) 99,06 %
25.12.2015 21:00 2,5 C 96 % 1033,3 hPa 0,0 l/m 1,9 km/h (1 Bft) O-SO 0,00 h 0,000 mm 0,0 UV-I 0 W/m 1,9 C 2,5 C 3,2 km/h (1 Bft) 98,15 %
25.12.2015 22:00 2,2 C 97 % 1033,4 hPa 0,0 l/m 1,9 km/h (1 Bft) O-SO 0,00 h 0,000 mm 0,0 UV-I 0 W/m 1,8 C 2,2 C 3,5 km/h (1 Bft) 98,85 %
25.12.2015 23:00 1,6 C 97 % 1033,3 hPa 0,0 l/m 2,6 km/h (1 Bft) S 0,00 h 0,000 mm 0,0 UV-I 0 W/m 1,2 C 1,6 C 4,5 km/h (1 Bft) 98,66 %
26.12.2015 00:00 1,1 C 97 % 1033,3 hPa 0,0 l/m 2,1 km/h (1 Bft) S 0,00 h 0,000 mm 0,0 UV-I 0 W/m 0,7 C 1,1 C 4,0 km/h (1 Bft) 97,90 %
26.12.2015 01:00 1,1 C 97 % 1033,2 hPa 0,0 l/m 1,6 km/h (1 Bft) O-NO 0,00 h 0,000 mm 0,0 UV-I 0 W/m 0,7 C 1,1 C 4,0 km/h (1 Bft) 99,22 %
26.12.2015 02:00 0,6 C 98 % 1033,4 hPa 0,0 l/m 1,2 km/h (1 Bft) O-SO 0,00 h 0,000 mm 0,0 UV-I 0 W/m 0,3 C 0,6 C 2,9 km/h (1 Bft) 97,42 %
26.12.2015 03:00 0,4 C 98 % 1033,4 hPa 0,0 l/m 0,8 km/h (0 Bft) S-SO 0,00 h 0,000 mm 0,0 UV-I 0 W/m 0,1 C 0,4 C 2,4 km/h (1 Bft) 98,79 %
26.12.2015 04:00 0,3 C 98 % 1033,3 hPa 0,0 l/m 2,5 km/h (1 Bft) S-SO 0,00 h 0,000 mm 0,0 UV-I 0 W/m 0,0 C 0,3 C 4,4 km/h (1 Bft) 97,39 %
26.12.2015 05:00 0,3 C 98 % 1033,1 hPa 0,0 l/m 3,1 km/h (1 Bft) SW 0,00 h 0,000 mm 0,0 UV-I 0 W/m 0,0 C 0,3 C 5,2 km/h (1 Bft) 98,80 %
26.12.2015 06:00 -0,4 C 98 % 1033,3 hPa 0,0 l/m 1,5 km/h (1 Bft) O-NO 0,00 h 0,000 mm 0,0 UV-I 0 W/m -0,7 C -0,4 C 4,4 km/h (1 Bft) 98,33 %
26.12.2015 07:00 -0,2 C 98 % 1033,2 hPa 0,0 l/m 3,9 km/h (1 Bft) S-SW 0,00 h 0,000 mm 0,0 UV-I 6 W/m -0,5 C -0,2 C 6,3 km/h (2 Bft) 98,74 %
26.12.2015 08:00 -0,7 C 98 % 1033,3 hPa 0,0 l/m 1,0 km/h (0 Bft) N-NO 0,33 h 0,000 mm 0,0 UV-I 36 W/m -1,0 C -0,7 C 3,1 km/h (1 Bft) 98,37 %
26.12.2015 09:00 0,8 C 98 % 1033,2 hPa 0,0 l/m 1,0 km/h (0 Bft) O-SO 0,92 h 0,025 mm 0,0 UV-I 138 W/m 0,5 C 0,8 C 3,1 km/h (1 Bft) 98,16 %
26.12.2015 10:00 2,3 C 96 % 1033,1 hPa 0,0 l/m 2,3 km/h (1 Bft) NO 1,00 h 0,051 mm 0,5 UV-I 245 W/m 1,7 C 2,3 C 4,0 km/h (1 Bft) 98,52 %
26.12.2015 11:00 4,4 C 93 % 1032,6 hPa 0,0 l/m 1,6 km/h (1 Bft) NO 1,00 h 0,102 mm 0,7 UV-I 272 W/m 3,4 C 4,4 C 3,3 km/h (1 Bft) 98,50 %
26.12.2015 12:00 5,9 C 90 % 1031,9 hPa 0,0 l/m 1,8 km/h (1 Bft) N-NO 1,00 h 0,101 mm 0,7 UV-I 284 W/m 4,3 C 5,9 C 4,4 km/h (1 Bft) 98,52 %
26.12.2015 13:00 8,4 C 81 % 1031,2 hPa 0,0 l/m 1,6 km/h (1 Bft) SW 1,00 h 0,127 mm 0,6 UV-I 240 W/m 5,4 C 8,4 C 3,7 km/h (1 Bft) 98,42 %
26.12.2015 14:00 9,3 C 77 % 1030,7 hPa 0,0 l/m 0,7 km/h (0 Bft) W-NW 1,00 h 0,102 mm 0,0 UV-I 149 W/m 5,5 C 9,3 C 2,4 km/h (1 Bft) 98,94 %
26.12.2015 15:00 8,6 C 81 % 1030,5 hPa 0,0 l/m 0,7 km/h (0 Bft) NW 0,33 h 0,076 mm 0,0 UV-I 46 W/m 5,5 C 8,6 C 2,1 km/h (1 Bft) 97,36 %
26.12.2015 16:00 6,2 C 89 % 1030,6 hPa 0,0 l/m 1,9 km/h (1 Bft) N-NO 0,08 h 0,026 mm 0,0 UV-I 8 W/m 4,4 C 6,2 C 3,5 km/h (1 Bft) 99,16 %
26.12.2015 17:00 4,1 C 94 % 1030,7 hPa 0,0 l/m 1,6 km/h (1 Bft) S-SO 0,00 h 0,000 mm 0,0 UV-I 0 W/m 3,2 C 4,1 C 3,6 km/h (1 Bft) 97,67 %
26.12.2015 18:00 3,5 C 96 % 1030,7 hPa 0,0 l/m 2,6 km/h (1 Bft) S-SO 0,00 h 0,000 mm 0,0 UV-I 0 W/m 2,8 C 3,5 C 4,3 km/h (1 Bft) 98,64 %
26.12.2015 19:00 3,1 C 97 % 1030,7 hPa 0,0 l/m 3,6 km/h (1 Bft) S 0,00 h 0,000 mm 0,0 UV-I 0 W/m 2,6 C 3,1 C 5,3 km/h (1 Bft) 98,50 %
26.12.2015 20:00 2,6 C 97 % 1031,0 hPa 0,0 l/m 1,3 km/h (1 Bft) N-NO 0,00 h 0,000 mm 0,0 UV-I 0 W/m 2,1 C 2,6 C 2,7 km/h (1 Bft) 97,38 %
26.12.2015 21:00 1,8 C 97 % 1031,3 hPa 0,0 l/m 1,2 km/h (1 Bft) NO 0,00 h 0,000 mm 0,0 UV-I 0 W/m 1,3 C 1,8 C 2,9 km/h (1 Bft) 99,36 %
26.12.2015 22:00 1,1 C 98 % 1031,3 hPa 0,0 l/m 3,8 km/h (1 Bft) S-SW 0,00 h 0,000 mm 0,0 UV-I 0 W/m 0,8 C 1,1 C 5,5 km/h (1 Bft) 97,02 %
26.12.2015 23:00 1,4 C 97 % 1031,6 hPa 0,0 l/m 4,5 km/h (1 Bft) S 0,00 h 0,000 mm 0,0 UV-I 0 W/m 0,9 C 1,0 C 7,4 km/h (2 Bft) 99,15 %
27.12.2015 00:00 0,3 C 97 % 1031,6 hPa 0,0 l/m 5,1 km/h (1 Bft) S 0,00 h 0,000 mm 0,0 UV-I 0 W/m -0,1 C 0,1 C 6,8 km/h (2 Bft) 97,86 %
27.12.2015 01:00 0,6 C 95 % 1031,5 hPa 0,0 l/m 2,7 km/h (1 Bft) S-SW 0,00 h 0,000 mm 0,0 UV-I 0 W/m -0,1 C 0,5 C 4,3 km/h (1 Bft) 99,08 %
27.12.2015 02:00 -0,1 C 96 % 1031,6 hPa 0,0 l/m 1,7 km/h (1 Bft) S-SW 0,00 h 0,000 mm 0,0 UV-I 0 W/m -0,6 C -0,1 C 3,2 km/h (1 Bft) 98,17 %
27.12.2015 03:00 -0,1 C 96 % 1031,6 hPa 0,0 l/m 0,8 km/h (0 Bft) S 0,00 h 0,000 mm 0,0 UV-I 0 W/m -0,7 C -0,1 C 2,4 km/h (1 Bft) 98,28 %
27.12.2015 04:00 -0,8 C 97 % 1031,5 hPa 0,0 l/m 1,1 km/h (0 Bft) S 0,00 h 0,000 mm 0,0 UV-I 0 W/m -1,2 C -0,8 C 2,3 km/h (1 Bft) 98,51 %
27.12.2015 05:00 -0,6 C 97 % 1031,8 hPa 0,0 l/m 0,8 km/h (0 Bft) S-SO 0,00 h 0,000 mm 0,0 UV-I 0 W/m -1,1 C -0,6 C 2,0 km/h (1 Bft) 97,63 %
27.12.2015 06:00 -1,1 C 97 % 1032,0 hPa 0,0 l/m 1,0 km/h (0 Bft) S-SO 0,00 h 0,000 mm 0,0 UV-I 0 W/m -1,5 C -1,1 C 2,8 km/h (1 Bft) 99,27 %
27.12.2015 07:00 -1,3 C 97 % 1032,3 hPa 0,0 l/m 1,3 km/h (1 Bft) S-SO 0,00 h 0,000 mm 0,0 UV-I 4 W/m -1,7 C -1,3 C 3,1 km/h (1 Bft) 97,36 %
27.12.2015 08:00 -1,7 C 97 % 1032,6 hPa 0,0 l/m 1,1 km/h (1 Bft) NO 0,25 h 0,000 mm 0,0 UV-I 34 W/m -2,1 C -1,7 C 2,5 km/h (1 Bft) 99,30 %
27.12.2015 09:00 -0,9 C 97 % 1032,8 hPa 0,2 l/m 1,8 km/h (1 Bft) NO 1,00 h 0,000 mm 0,0 UV-I 135 W/m -1,3 C -0,9 C 3,6 km/h (1 Bft) 97,44 %
27.12.2015 10:00 0,8 C 96 % 1033,0 hPa 0,0 l/m 1,4 km/h (1 Bft) NO 1,00 h 0,051 mm 0,4 UV-I 238 W/m 0,2 C 0,8 C 3,2 km/h (1 Bft) 99,14 %
27.12.2015 11:00 2,7 C 93 % 1032,8 hPa 0,0 l/m 3,6 km/h (1 Bft) NO 1,00 h 0,076 mm 0,6 UV-I 282 W/m 1,6 C 2,7 C 5,7 km/h (1 Bft) 98,29 %
27.12.2015 12:00 4,8 C 88 % 1032,5 hPa 0,0 l/m 2,2 km/h (1 Bft) NO 1,00 h 0,102 mm 0,6 UV-I 286 W/m 3,0 C 4,8 C 4,4 km/h (1 Bft) 98,05 %
27.12.2015 13:00 6,9 C 84 % 1032,2 hPa 0,0 l/m 1,8 km/h (1 Bft) NO 1,00 h 0,101 mm 0,5 UV-I 247 W/m 4,3 C 6,9 C 3,7 km/h (1 Bft) 98,80 %
27.12.2015 14:00 8,1 C 76 % 1032,1 hPa 0,0 l/m 1,7 km/h (1 Bft) O-NO 1,00 h 0,102 mm 0,0 UV-I 151 W/m 4,1 C 8,1 C 4,0 km/h (1 Bft) 99,08 %
27.12.2015 15:00 7,2 C 79 % 1032,3 hPa 0,0 l/m 1,1 km/h (1 Bft) O-NO 0,92 h 0,076 mm 0,0 UV-I 58 W/m 3,8 C 7,2 C 2,9 km/h (1 Bft) 97,02 %
27.12.2015 16:00 4,5 C 89 % 1032,5 hPa 0,0 l/m 2,3 km/h (1 Bft) S 0,08 h 0,025 mm 0,0 UV-I 7 W/m 2,8 C 4,5 C 4,3 km/h (1 Bft) 98,93 %
27.12.2015 17:00 2,9 C 92 % 1032,9 hPa 0,0 l/m 1,2 km/h (1 Bft) NO 0,00 h 0,000 mm 0,0 UV-I 0 W/m 1,7 C 2,9 C 2,8 km/h (1 Bft) 97,60 %
27.12.2015 18:00 1,7 C 94 % 1033,1 hPa 0,0 l/m 1,8 km/h (1 Bft) SO 0,00 h 0,000 mm 0,0 UV-I 0 W/m 0,9 C 1,7 C 3,7 km/h (1 Bft) 98,93 %
27.12.2015 19:00 1,0 C 96 % 1033,2 hPa 0,0 l/m 1,7 km/h (1 Bft) SO 0,00 h 0,000 mm 0,0 UV-I 0 W/m 0,4 C 1,0 C 3,6 km/h (1 Bft) 97,27 %
27.12.2015 20:00 0,9 C 96 % 1033,6 hPa 0,0 l/m 2,6 km/h (1 Bft) S 0,00 h 0,000 mm 0,0 UV-I 0 W/m 0,3 C 0,9 C 4,5 km/h (1 Bft) 99,13 %
27.12.2015 21:00 0,5 C 97 % 1033,7 hPa 0,0 l/m 1,3 km/h (1 Bft) O-SO 0,00 h 0,000 mm 0,0 UV-I 0 W/m -0,0 C 0,5 C 3,3 km/h (1 Bft) 98,30 %
27.12.2015 22:00 0,8 C 96 % 1033,8 hPa 0,0 l/m 3,5 km/h (1 Bft) S 0,00 h 0,000 mm 0,0 UV-I 0 W/m 0,3 C 0,7 C 5,9 km/h (2 Bft) 98,68 %
27.12.2015 23:00 0,7 C 95 % 1033,8 hPa 0,0 l/m 5,5 km/h (1 Bft) S-SW 0,00 h 0,000 mm 0,0 UV-I 0 W/m -0,0 C 0,5 C 7,8 km/h (2 Bft) 98,82 %
Min-Datum _ 27.12.15 22.12.15 21.12.15 - 21.12.15 - - - - - 27.12.15 27.12.15 21.12.15 21.12.15
_ Min-Zeit 08:35 13:25 02:50 - 05:50 - - - - - 08:35 08:35 05:50 06:00
Minimum _ -2,1 C 58 % 1026,0 hPa - 0,0 km/h (0 Bft) - - - - - -2,5 C -2,1 C 0,0 km/h (0 Bft) 93,50 %
Max-Datum _ 22.12.15 21.12.15 27.12.15 21.12.15 22.12.15 - 24.12.15 22.12.15 22.12.15 22.12.15 21.12.15 22.12.15 22.12.15 21.12.15
_ Max-Zeit 13:35 12:00 22:00 14:55 10:05 - 12:20 12:00 11:40 11:45 17:40 14:25 10:05 00:15
Maximum _ 14,2 C 100 % 1034,0 hPa 0,2 l/m 15,8 km/h
SW (3 Bft)
- 0,25 h 0,178 mm 0,8 UV-I 354 W/m 7,4 C 14,1 C 25,7 km/h
SW (4 Bft)
100,00 %
Durchschnitt _ 4,2 C 91 % 1030,4 hPa #0,4 l/m 3,1 km/h (1 Bft) S #38:30 h #4,190 mm 0,6 UV-I 125 W/m 2,7 C 3,9 C 5,7 km/h (1 Bft) 98,46 %